createdAt,value
2023-05-07T00:02:49.939Z,56.03
2023-05-07T00:07:54.274Z,56.80
2023-05-07T00:12:57.407Z,57.77
2023-05-07T00:18:00.664Z,59.02
2023-05-07T00:23:04.066Z,60.89
2023-05-07T00:28:07.153Z,66.76
2023-05-07T00:33:10.325Z,58.85
2023-05-07T00:38:13.461Z,53.06
2023-05-07T00:43:16.582Z,54.37
2023-05-07T00:48:19.976Z,55.99
2023-05-07T00:53:23.387Z,57.65
2023-05-07T00:58:26.675Z,59.02
2023-05-07T01:03:29.788Z,60.31
2023-05-07T01:08:34.097Z,61.19
2023-05-07T01:13:38.874Z,68.64
2023-05-07T01:18:42.331Z,60.93
2023-05-07T01:23:47.221Z,53.28
2023-05-07T01:28:50.489Z,54.31
2023-05-07T01:33:55.149Z,56.09
2023-05-07T01:39:00.216Z,57.23
2023-05-07T01:44:05.278Z,58.57
2023-05-07T01:49:08.620Z,59.96
2023-05-07T01:54:11.669Z,60.66
2023-05-07T01:59:14.843Z,66.65
2023-05-07T02:04:17.912Z,60.33
2023-05-07T02:09:21.491Z,52.84
2023-05-07T02:14:27.172Z,53.91
2023-05-07T02:19:30.460Z,55.08
2023-05-07T02:24:35.973Z,57.75
2023-05-07T02:29:39.086Z,59.19
2023-05-07T02:34:42.481Z,59.46
2023-05-07T02:39:45.537Z,60.15
2023-05-07T02:44:48.538Z,67.44
2023-05-07T02:49:52.912Z,60.46
2023-05-07T02:54:56.829Z,52.81
2023-05-07T03:00:00.290Z,53.35
2023-05-07T03:05:07.939Z,55.07
2023-05-07T03:10:11.562Z,56.83
2023-05-07T03:16:13.566Z,58.50
2023-05-07T03:21:16.743Z,59.24
2023-05-07T03:26:19.946Z,59.88
2023-05-07T03:31:23.219Z,60.61
2023-05-07T03:36:29.621Z,67.35
2023-05-07T03:41:33.768Z,59.47
2023-05-07T03:46:37.325Z,51.65
2023-05-07T03:51:40.817Z,52.90
2023-05-07T03:56:44.582Z,54.40
2023-05-07T04:01:47.934Z,55.76
2023-05-07T04:06:58.619Z,56.89
2023-05-07T04:12:07.813Z,57.64
2023-05-07T04:17:12.279Z,58.77
2023-05-07T04:22:15.709Z,59.65
2023-05-07T04:27:18.733Z,60.47
2023-05-07T04:32:22.012Z,68.06
2023-05-07T04:37:27.558Z,59.43
2023-05-07T04:42:31.702Z,52.21
2023-05-07T04:47:36.357Z,53.37
2023-05-07T04:52:39.815Z,55.12
2023-05-07T04:57:43.092Z,56.12
2023-05-07T05:02:56.648Z,56.85
2023-05-07T05:08:00.047Z,57.92
2023-05-07T05:13:03.611Z,59.20
2023-05-07T05:18:07.928Z,59.97
2023-05-07T05:23:11.272Z,60.54
2023-05-07T05:28:18.847Z,68.26
2023-05-07T05:33:23.117Z,60.50
2023-05-07T05:38:27.005Z,51.88
2023-05-07T05:43:31.510Z,52.38
2023-05-07T05:48:35.133Z,53.50
2023-05-07T05:53:39.062Z,54.67
2023-05-07T05:58:48.521Z,55.99
2023-05-07T06:03:52.326Z,57.05
2023-05-07T06:08:55.568Z,57.95
2023-05-07T06:14:02.629Z,59.34
2023-05-07T06:19:08.146Z,60.47
2023-05-07T06:24:12.293Z,61.36
2023-05-07T06:29:19.346Z,61.58
2023-05-07T06:34:24.099Z,69.05
2023-05-07T06:39:36.707Z,59.63
2023-05-07T06:44:40.040Z,51.60
2023-05-07T06:49:45.781Z,53.31
2023-05-07T06:54:51.676Z,54.09
2023-05-07T06:59:57.170Z,55.14
2023-05-07T07:05:00.505Z,56.28
2023-05-07T07:10:05.369Z,57.82
2023-05-07T07:15:09.110Z,58.60
2023-05-07T07:20:12.782Z,59.54
2023-05-07T08:25:35.001Z,58.09
2023-05-07T08:30:38.898Z,59.25
2023-05-07T08:35:42.791Z,59.74
2023-05-07T08:40:48.108Z,60.31
2023-05-07T10:45:32.109Z,56.87
2023-05-07T10:50:37.886Z,57.37
2023-05-07T10:55:41.692Z,58.03
2023-05-07T11:00:54.116Z,58.64
2023-05-07T11:06:12.549Z,59.35
2023-05-07T11:11:52.505Z,59.79
2023-05-07T11:17:24.295Z,59.45
2023-05-07T11:22:41.139Z,60.32
2023-05-07T11:27:50.425Z,60.55
2023-05-07T11:32:53.719Z,60.67
2023-05-07T11:38:01.823Z,61.36
2023-05-07T11:43:12.936Z,61.09
2023-05-07T11:48:17.516Z,60.78
2023-05-07T11:53:22.126Z,60.75
2023-05-07T11:58:26.802Z,60.95
2023-05-07T12:03:32.067Z,61.05
2023-05-07T12:08:40.556Z,61.81
2023-05-07T12:13:43.690Z,61.40
2023-05-07T12:18:47.803Z,61.11
2023-05-07T12:23:51.199Z,60.74
2023-05-07T12:28:54.608Z,60.94
2023-05-07T12:34:13.443Z,60.89
2023-05-07T12:39:27.866Z,61.13
2023-05-07T12:44:33.807Z,60.73
2023-05-07T12:49:39.860Z,60.79
2023-05-07T12:54:43.058Z,61.10
2023-05-07T12:59:58.984Z,60.74
2023-05-07T13:05:02.274Z,60.81
2023-05-07T13:10:06.161Z,60.73
2023-05-07T13:15:09.881Z,61.20
2023-05-07T13:20:16.834Z,61.19
2023-05-07T13:25:20.111Z,61.22
2023-05-07T13:30:23.253Z,60.82
2023-05-07T13:35:26.925Z,60.62
2023-05-07T13:40:30.632Z,60.39
2023-05-07T13:45:33.875Z,60.26
2023-05-07T13:50:37.351Z,60.37
2023-05-07T13:55:40.981Z,60.40
2023-05-07T14:00:44.837Z,60.34
2023-05-07T14:05:56.437Z,60.61
2023-05-07T14:11:01.169Z,60.64
2023-05-07T14:25:32.260Z,60.64
2023-05-07T14:30:35.306Z,60.71
2023-05-07T16:45:51.090Z,51.89
2023-05-07T16:57:25.773Z,53.95
2023-05-07T17:02:29.807Z,55.02
2023-05-07T17:07:33.567Z,56.51
2023-05-07T17:12:37.961Z,56.95
2023-05-07T17:17:42.188Z,57.57
2023-05-07T17:22:45.775Z,57.97
2023-05-07T17:28:06.228Z,58.44
2023-05-07T17:33:20.251Z,59.04
2023-05-07T17:38:24.721Z,59.46
2023-05-07T17:43:28.129Z,59.93
2023-05-07T17:48:31.712Z,59.97
2023-05-07T17:53:35.105Z,60.18
2023-05-07T17:58:57.523Z,60.53
2023-05-07T18:04:03.489Z,60.82
2023-05-07T18:09:06.820Z,61.48
2023-05-07T18:14:10.139Z,61.06
2023-05-07T18:19:13.665Z,61.04
2023-05-07T18:24:17.139Z,60.97
2023-05-07T18:29:20.799Z,61.17
2023-05-07T18:34:24.201Z,61.09
2023-05-07T18:39:27.595Z,61.20
2023-05-07T18:44:31.746Z,61.25
2023-05-07T18:49:35.794Z,61.46
2023-05-07T18:54:40.331Z,61.47
2023-05-07T18:59:43.861Z,61.51
2023-05-07T19:04:47.225Z,61.68
2023-05-07T19:10:03.576Z,61.74
2023-05-07T19:15:09.806Z,61.79
2023-05-07T19:20:13.563Z,61.89
2023-05-07T19:25:18.328Z,61.81
2023-05-07T19:30:21.877Z,61.88
2023-05-07T19:35:25.993Z,62.00
2023-05-07T19:40:32.999Z,68.96
2023-05-07T19:45:37.807Z,61.79
2023-05-07T19:50:41.921Z,51.16
2023-05-07T19:55:45.757Z,51.59
2023-05-07T20:00:49.987Z,53.16
2023-05-07T20:05:53.464Z,54.05
2023-05-07T20:10:58.398Z,54.95
2023-05-07T20:16:02.440Z,55.91
2023-05-07T20:21:06.745Z,56.97
2023-05-07T20:26:10.005Z,57.92
2023-05-07T20:31:13.511Z,58.38
2023-05-07T20:36:26.143Z,58.92
2023-05-07T20:41:29.333Z,59.27
2023-05-07T20:46:32.573Z,59.66
2023-05-07T20:51:36.728Z,60.01
2023-05-07T20:56:39.888Z,60.20
2023-05-07T21:01:43.286Z,60.37
2023-05-07T21:06:46.870Z,60.76
2023-05-07T21:11:50.112Z,60.77
2023-05-07T21:16:53.953Z,60.80
2023-05-07T21:21:58.599Z,60.83
2023-05-07T21:27:01.796Z,60.86
2023-05-07T21:32:05.815Z,61.01
2023-05-07T21:37:09.345Z,61.10
2023-05-07T21:42:12.671Z,61.16
2023-05-07T21:47:15.966Z,61.11
2023-05-07T21:52:19.683Z,61.14
2023-05-07T21:57:23.169Z,61.05
2023-05-07T22:02:26.554Z,61.09
2023-05-07T22:07:29.916Z,61.10
2023-05-07T22:12:33.221Z,61.12
2023-05-07T22:17:36.652Z,61.29
2023-05-07T22:22:52.262Z,61.43
2023-05-07T22:27:56.349Z,61.47
2023-05-07T22:32:59.623Z,61.54
2023-05-07T22:38:02.999Z,61.69
2023-05-07T22:43:06.372Z,61.77
2023-05-07T22:48:10.090Z,61.88
2023-05-07T22:53:13.874Z,61.74
2023-05-07T22:58:17.155Z,61.83
2023-05-07T23:03:20.567Z,61.87
2023-05-07T23:08:24.018Z,61.95
2023-05-07T23:13:28.016Z,61.99
2023-05-07T23:18:35.026Z,62.14
2023-05-07T23:23:42.523Z,61.98
2023-05-07T23:28:46.205Z,62.04
2023-05-07T23:33:49.999Z,62.18
2023-05-07T23:38:53.808Z,62.20
2023-05-07T23:43:57.201Z,69.68
2023-05-07T23:49:00.737Z,62.64
2023-05-07T23:54:10.343Z,51.22
2023-05-07T23:59:13.697Z,50.24
